Time;durP1;ratioP1;P1;durP2;ratioP2;P2;SDS_P1;SDS_P2;PMS_P1;PMS_P2;Temp;Humidity;BMP_temperature;BMP_pressure;BME280_temperature;BME280_humidity;BME280_pressure;Samples;Min_cycle;Max_cycle;Signal;HPM_P1;HPM_P2
2021/08/26 00:07:25;;;;;;;;;14.75;14.75;;;;;17.81;59.62;101584.22;4949637;28;45677;-71
2021/08/26 00:09:51;;;;;;;;;20.25;16.75;;;;;17.79;59.87;101584.38;4964505;28;45429;-65
2021/08/26 00:12:19;;;;;;;;;15.75;15.75;;;;;17.75;60.81;101591.06;4958948;28;45483;-68
2021/08/26 00:14:44;;;;;;;;;15.25;14.75;;;;;17.70;59.98;101588.09;4950303;28;45508;-70
2021/08/26 00:17:10;;;;;;;;;21.50;16.00;;;;;17.68;60.12;101589.28;4947308;28;45569;-72
2021/08/26 00:19:35;;;;;;;;;18.00;17.25;;;;;17.66;60.14;101593.97;4951198;28;45655;-71
2021/08/26 00:22:02;;;;;;;;;18.75;18.25;;;;;17.64;60.67;101591.47;4950242;28;45858;-66
2021/08/26 00:24:27;;;;;;;;;18.50;16.75;;;;;17.61;61.10;101591.84;4951871;28;45473;-65
2021/08/26 00:26:53;;;;;;;;;18.50;17.00;;;;;17.58;61.06;101589.47;4956708;28;45523;-71
2021/08/26 00:29:18;;;;;;;;;26.25;19.25;;;;;17.57;60.88;101590.50;4949868;28;45419;-69
2021/08/26 00:31:43;;;;;;;;;15.50;15.50;;;;;17.56;60.79;101595.03;4953468;28;46880;-71
2021/08/26 00:34:09;;;;;;;;;21.75;20.00;;;;;17.57;61.89;101598.53;4955778;28;54908;-70
2021/08/26 00:36:34;;;;;;;;;19.25;18.50;;;;;17.52;61.58;101599.03;4931600;28;46205;-71
2021/08/26 00:39:00;;;;;;;;;23.25;21.50;;;;;17.48;62.58;101602.22;4948713;28;45562;-71
2021/08/26 00:41:26;;;;;;;;;21.75;20.75;;;;;17.43;61.88;101597.41;4953583;28;46298;-66
2021/08/26 00:43:51;;;;;;;;;18.75;18.75;;;;;17.39;62.29;101596.94;4955644;28;45438;-69
2021/08/26 00:46:16;;;;;;;;;16.00;12.25;;;;;17.38;62.27;101594.41;4951306;28;45582;-68
2021/08/26 00:48:46;;;;;;;;;18.25;17.00;;;;;17.35;62.12;101592.94;4946204;28;45892;-65
2021/08/26 00:51:12;;;;;;;;;19.25;18.00;;;;;17.33;62.25;101592.28;4955306;28;45672;-71
2021/08/26 00:53:39;;;;;;;;;24.00;20.00;;;;;17.30;62.36;101595.28;4953514;28;45487;-66
2021/08/26 00:56:06;;;;;;;;;16.25;15.25;;;;;17.25;63.02;101592.31;4954955;28;45579;-66
2021/08/26 00:58:31;;;;;;;;;21.75;16.75;;;;;17.20;62.82;101590.16;4951992;28;45516;-66
2021/08/26 01:01:03;;;;;;;;;15.75;15.00;;;;;17.17;62.85;101587.81;4953472;28;46129;-66
2021/08/26 01:03:45;;;;;;;;;18.50;18.50;;;;;17.16;63.24;101577.28;4945279;28;45800;-72
2021/08/26 01:06:15;;;;;;;;;17.75;16.50;;;;;17.11;63.08;101580.50;4947441;28;45855;-72
2021/08/26 01:09:07;;;;;;;;;17.50;12.25;;;;;17.07;63.63;101576.50;4946222;28;45634;-71
2021/08/26 01:11:35;;;;;;;;;17.25;16.00;;;;;17.05;63.16;101575.00;4939419;28;47246;-71
2021/08/26 01:14:03;;;;;;;;;16.75;16.25;;;;;17.05;63.20;101583.03;4949084;28;45571;-71
2021/08/26 01:16:28;;;;;;;;;14.75;13.50;;;;;17.02;63.49;101575.38;4936839;28;45641;-69
2021/08/26 01:18:54;;;;;;;;;15.50;13.00;;;;;16.98;63.63;101570.34;4949222;28;45591;-71
2021/08/26 01:21:24;;;;;;;;;13.25;12.00;;;;;16.94;63.57;101574.38;4947736;28;45484;-72
2021/08/26 01:23:54;;;;;;;;;17.00;12.00;;;;;16.90;63.86;101569.56;4959865;28;45565;-71
2021/08/26 01:26:23;;;;;;;;;11.50;11.50;;;;;16.88;65.09;101569.72;4951387;28;45520;-71
2021/08/26 01:28:53;;;;;;;;;14.50;12.25;;;;;16.85;63.75;101570.06;4950340;28;45611;-71
2021/08/26 01:31:20;;;;;;;;;12.75;12.00;;;;;16.83;64.87;101565.88;4933919;28;47244;-66
2021/08/26 01:34:03;;;;;;;;;11.75;10.00;;;;;16.77;64.16;101560.19;4947374;28;45489;-68
2021/08/26 01:36:36;;;;;;;;;10.50;9.00;;;;;16.74;64.22;101565.03;4957399;28;45833;-72
2021/08/26 01:39:11;;;;;;;;;10.75;9.00;;;;;16.71;64.14;101552.03;4948680;28;45828;-71
2021/08/26 01:41:44;;;;;;;;;11.00;9.50;;;;;16.68;64.56;101552.38;4957618;28;46151;-66
2021/08/26 01:44:11;;;;;;;;;11.25;10.25;;;;;16.66;64.40;101557.03;4950348;28;45580;-69
2021/08/26 01:46:37;;;;;;;;;8.50;7.00;;;;;16.64;64.79;101551.91;4949511;28;45515;-71
2021/08/26 01:49:03;;;;;;;;;13.00;10.25;;;;;16.63;64.46;101560.06;4952376;28;45632;-69
2021/08/26 01:51:28;;;;;;;;;12.00;10.00;;;;;16.60;64.75;101555.88;4947714;28;45713;-70
2021/08/26 01:53:55;;;;;;;;;10.75;9.75;;;;;16.60;64.78;101561.22;4955230;28;46968;-71
2021/08/26 01:56:20;;;;;;;;;11.75;10.50;;;;;16.59;64.78;101558.72;4946171;28;45536;-71
2021/08/26 01:58:45;;;;;;;;;11.25;10.50;;;;;16.54;64.64;101554.75;4948768;28;45872;-71
2021/08/26 02:01:11;;;;;;;;;11.00;9.25;;;;;16.53;65.17;101554.91;4943599;28;45504;-71
2021/08/26 02:03:37;;;;;;;;;11.25;8.75;;;;;16.50;64.88;101553.41;4953264;28;45563;-71
2021/08/26 02:06:03;;;;;;;;;11.50;9.00;;;;;16.48;65.17;101555.41;4957802;28;45445;-70
2021/08/26 02:08:29;;;;;;;;;14.50;10.00;;;;;16.47;65.23;101551.06;4953725;28;45731;-69
2021/08/26 02:10:54;;;;;;;;;11.00;9.00;;;;;16.45;65.23;101547.75;4948033;28;46201;-69
2021/08/26 02:13:19;;;;;;;;;12.00;8.00;;;;;16.44;65.40;101553.22;4948327;28;45378;-71
2021/08/26 02:15:45;;;;;;;;;11.00;11.00;;;;;16.42;65.60;101556.09;4951306;28;45373;-71
2021/08/26 02:18:10;;;;;;;;;13.25;11.00;;;;;16.42;65.40;101558.75;4948524;28;45585;-68
2021/08/26 02:20:35;;;;;;;;;12.25;10.00;;;;;16.41;65.48;101557.06;4959388;28;51224;-69
2021/08/26 02:23:01;;;;;;;;;12.50;12.25;;;;;16.41;66.04;101545.56;4951775;28;45595;-70
2021/08/26 02:25:26;;;;;;;;;9.75;9.25;;;;;16.41;65.63;101553.56;4954555;28;45512;-68
2021/08/26 02:27:51;;;;;;;;;13.25;11.75;;;;;16.40;65.89;101555.41;4952612;28;45536;-66
2021/08/26 02:30:17;;;;;;;;;7.75;7.75;;;;;16.41;65.57;101551.72;4950847;28;46078;-66
2021/08/26 02:32:42;;;;;;;;;11.75;9.25;;;;;16.42;65.68;101552.56;4950662;28;45853;-71
2021/08/26 02:35:08;;;;;;;;;12.75;11.50;;;;;16.40;65.85;101554.59;4949349;28;45478;-68
2021/08/26 02:37:33;;;;;;;;;10.25;9.75;;;;;16.35;65.96;101555.09;4934174;28;45486;-71
2021/08/26 02:39:59;;;;;;;;;9.00;9.00;;;;;16.31;65.94;101553.75;4950038;28;45526;-71
2021/08/26 02:42:25;;;;;;;;;10.50;9.75;;;;;16.28;66.28;101559.41;4950436;28;45637;-69
2021/08/26 02:44:50;;;;;;;;;12.50;11.00;;;;;16.25;66.46;101562.44;4958834;28;45449;-68
2021/08/26 02:47:15;;;;;;;;;16.00;12.00;;;;;16.23;66.18;101562.56;4952992;28;45598;-69
2021/08/26 02:49:41;;;;;;;;;10.00;10.00;;;;;16.23;66.22;101553.75;4935828;28;47062;-68
2021/08/26 02:52:07;;;;;;;;;12.75;10.00;;;;;16.22;66.46;101552.06;4948426;28;45543;-68
2021/08/26 02:54:32;;;;;;;;;13.00;11.25;;;;;16.17;66.42;101549.06;4957053;28;45420;-68
2021/08/26 02:56:57;;;;;;;;;10.00;10.00;;;;;16.13;66.69;101545.91;4951024;28;45458;-68
2021/08/26 02:59:23;;;;;;;;;11.75;10.50;;;;;16.10;66.62;101543.59;4959348;28;47098;-71
2021/08/26 03:01:48;;;;;;;;;11.50;10.00;;;;;16.08;66.70;101549.06;4950527;28;45502;-71
2021/08/26 03:04:13;;;;;;;;;14.00;11.75;;;;;16.05;66.79;101556.59;4951741;28;45497;-66
2021/08/26 03:06:39;;;;;;;;;11.00;11.00;;;;;16.02;66.75;101540.91;4952124;28;45442;-71
2021/08/26 03:09:04;;;;;;;;;11.50;10.25;;;;;16.02;67.03;101543.56;4958147;28;45465;-70
2021/08/26 03:11:29;;;;;;;;;11.75;11.00;;;;;15.99;67.15;101546.56;4959322;28;45437;-65
2021/08/26 03:13:55;;;;;;;;;14.50;12.50;;;;;15.94;67.34;101544.38;4955160;28;45441;-71
2021/08/26 03:16:20;;;;;;;;;13.00;11.75;;;;;15.91;67.57;101539.41;4953666;28;45424;-70
2021/08/26 03:18:46;;;;;;;;;10.25;9.25;;;;;15.90;67.67;101551.06;4962007;28;46171;-65
2021/08/26 03:21:13;;;;;;;;;11.75;10.25;;;;;15.86;67.68;101539.06;4953109;28;45430;-69
2021/08/26 03:23:38;;;;;;;;;14.25;12.50;;;;;15.83;67.57;101542.06;4955012;28;45545;-68
2021/08/26 03:26:03;;;;;;;;;12.00;10.75;;;;;15.80;67.59;101542.38;4948851;28;45441;-67
2021/08/26 03:28:29;;;;;;;;;14.00;12.00;;;;;15.76;67.99;101535.72;4946296;28;46175;-69
2021/08/26 03:30:54;;;;;;;;;12.00;10.00;;;;;15.73;68.05;101531.53;4953538;28;46977;-68
2021/08/26 03:33:19;;;;;;;;;14.50;10.50;;;;;15.71;67.88;101538.03;4949617;28;45539;-68
2021/08/26 03:35:48;;;;;;;;;10.00;9.00;;;;;15.67;68.01;101535.63;4958725;28;45575;-68
2021/08/26 03:38:14;;;;;;;;;12.50;10.75;;;;;15.64;68.06;101538.63;4950269;28;46221;-66
2021/08/26 03:40:39;;;;;;;;;11.75;9.25;;;;;15.64;68.16;101546.63;4949853;28;45888;-71
2021/08/26 03:43:05;;;;;;;;;13.50;9.00;;;;;15.64;68.38;101543.16;4949717;28;45444;-71
2021/08/26 03:45:30;;;;;;;;;8.00;7.00;;;;;15.62;68.65;101534.47;4956426;28;45552;-71
2021/08/26 03:47:55;;;;;;;;;9.75;9.50;;;;;15.59;68.54;101540.97;4951461;28;46014;-65
2021/08/26 03:50:21;;;;;;;;;9.75;9.50;;;;;15.59;68.70;101540.13;4952276;28;45495;-65
2021/08/26 03:52:46;;;;;;;;;8.00;8.00;;;;;15.58;68.56;101543.78;4947580;28;45593;-69
2021/08/26 03:55:11;;;;;;;;;8.00;8.00;;;;;15.56;68.81;101546.63;4955782;28;45487;-66
2021/08/26 03:57:37;;;;;;;;;10.25;8.00;;;;;15.54;68.44;101543.28;4949282;28;45677;-68
2021/08/26 04:00:03;;;;;;;;;10.75;8.50;;;;;15.54;68.53;101532.63;4949995;28;45469;-70
2021/08/26 04:02:28;;;;;;;;;11.25;10.50;;;;;15.52;68.70;101537.28;4952751;28;45715;-69
2021/08/26 04:04:53;;;;;;;;;10.75;9.00;;;;;15.48;69.27;101539.44;4952330;28;45464;-68
2021/08/26 04:07:19;;;;;;;;;10.50;8.50;;;;;15.46;69.01;101543.25;4950804;28;45948;-69
2021/08/26 04:09:45;;;;;;;;;12.00;9.50;;;;;15.41;68.96;101549.06;4955991;28;45432;-71
2021/08/26 04:12:11;;;;;;;;;10.75;8.25;;;;;15.38;69.04;101546.75;4947575;28;45534;-66
2021/08/26 04:14:37;;;;;;;;;11.00;8.25;;;;;15.38;69.45;101543.22;4948484;28;45514;-66
2021/08/26 04:17:02;;;;;;;;;8.25;7.50;;;;;15.35;69.25;101540.88;4945472;28;47089;-68
2021/08/26 04:19:27;;;;;;;;;12.00;9.50;;;;;15.34;69.38;101544.56;4947632;28;45469;-66
2021/08/26 04:21:53;;;;;;;;;10.50;8.00;;;;;15.33;69.29;101549.06;4955415;28;46001;-66
2021/08/26 04:24:18;;;;;;;;;6.50;6.50;;;;;15.32;69.23;101550.03;4949209;28;45595;-66
2021/08/26 04:26:44;;;;;;;;;10.75;9.00;;;;;15.32;69.61;101554.53;4954135;28;46923;-68
2021/08/26 04:29:09;;;;;;;;;11.00;8.25;;;;;15.29;69.38;101549.53;4957576;28;45586;-66
2021/08/26 04:31:35;;;;;;;;;8.75;8.75;;;;;15.26;69.83;101545.34;4954131;28;45428;-66
2021/08/26 04:34:01;;;;;;;;;7.50;7.00;;;;;15.26;69.57;101548.03;4949853;28;45616;-70
2021/08/26 04:36:26;;;;;;;;;10.00;9.00;;;;;15.24;69.96;101548.16;4951999;28;46362;-66
2021/08/26 04:38:51;;;;;;;;;8.50;8.00;;;;;15.23;69.49;101540.34;4947612;28;45422;-69
2021/08/26 04:41:17;;;;;;;;;8.50;7.50;;;;;15.21;69.64;101543.19;4944815;28;45499;-69
2021/08/26 04:43:42;;;;;;;;;8.25;7.25;;;;;15.19;69.94;101534.50;4934822;28;45567;-73
2021/08/26 04:46:08;;;;;;;;;11.25;8.00;;;;;15.19;70.04;101528.34;4922899;28;47320;-69
2021/08/26 04:48:33;;;;;;;;;7.75;7.25;;;;;15.20;70.07;101530.84;4917992;28;45866;-65
2021/08/26 04:50:58;;;;;;;;;6.75;6.00;;;;;15.24;70.14;101534.84;4938800;28;45524;-65
2021/08/26 04:53:24;;;;;;;;;6.00;5.00;;;;;15.27;69.71;101537.19;4954806;28;48963;-63
2021/08/26 04:55:49;;;;;;;;;4.25;4.25;;;;;15.31;69.84;101529.72;4939088;28;46250;-73
2021/08/26 04:58:14;;;;;;;;;5.00;5.00;;;;;15.36;69.84;101534.59;4913810;28;60545;-72
2021/08/26 05:00:40;;;;;;;;;6.00;4.25;;;;;15.39;69.71;101539.56;4938100;28;45482;-63
2021/08/26 05:03:05;;;;;;;;;7.25;6.00;;;;;15.42;69.50;101536.59;4940453;28;45461;-67
2021/08/26 05:05:31;;;;;;;;;3.25;3.25;;;;;15.43;69.68;101544.44;4947490;28;45995;-66
2021/08/26 05:07:56;;;;;;;;;5.75;5.00;;;;;15.46;69.37;101537.94;4942888;28;45809;-68
2021/08/26 05:10:21;;;;;;;;;6.50;4.50;;;;;15.51;69.91;101540.13;4942559;28;45524;-64
2021/08/26 05:12:47;;;;;;;;;6.25;4.00;;;;;15.54;69.45;101532.63;4946475;28;49474;-72
2021/08/26 05:15:12;;;;;;;;;4.25;4.25;;;;;15.59;69.23;101530.31;4943106;28;45821;-67
2021/08/26 05:17:37;;;;;;;;;5.50;4.00;;;;;15.62;69.52;101534.47;4946274;28;45422;-71
2021/08/26 05:20:03;;;;;;;;;3.25;3.25;;;;;15.66;69.43;101531.31;4923114;28;45600;-68
2021/08/26 05:22:29;;;;;;;;;4.25;3.00;;;;;15.73;69.74;101530.72;4945536;28;45780;-69
2021/08/26 05:24:54;;;;;;;;;4.00;4.00;;;;;15.81;69.36;101538.72;4942534;28;45429;-73
2021/08/26 05:27:20;;;;;;;;;3.00;3.00;;;;;15.87;69.81;101532.72;4925335;28;45936;-64
2021/08/26 05:29:45;;;;;;;;;4.00;3.00;;;;;15.96;68.98;101537.06;4944150;28;45630;-63
2021/08/26 05:32:11;;;;;;;;;3.00;3.00;;;;;16.02;69.32;101541.75;4940095;28;45654;-66
2021/08/26 05:34:36;;;;;;;;;3.00;3.00;;;;;16.07;69.13;101544.75;4928185;28;45960;-66
2021/08/26 05:37:02;;;;;;;;;4.50;4.00;;;;;16.12;68.66;101542.41;4939040;28;45421;-65
2021/08/26 05:39:28;;;;;;;;;3.00;3.00;;;;;16.17;68.51;101549.06;4941241;28;45691;-66
2021/08/26 05:41:53;;;;;;;;;4.25;3.00;;;;;16.22;68.48;101541.41;4940731;28;45528;-64
2021/08/26 05:44:19;;;;;;;;;7.75;2.25;;;;;16.26;68.77;101535.56;4947459;28;46838;-66
2021/08/26 05:46:45;;;;;;;;;6.00;3.00;;;;;16.30;68.16;101538.75;4944806;28;45792;-62
2021/08/26 05:49:11;;;;;;;;;3.50;3.50;;;;;16.34;68.53;101537.41;4941079;28;45943;-70
2021/08/26 05:51:36;;;;;;;;;2.00;2.00;;;;;16.39;68.43;101537.72;4938793;28;46258;-67
2021/08/26 05:54:03;;;;;;;;;4.25;3.25;;;;;16.44;67.95;101540.72;4940070;28;47076;-70
2021/08/26 05:56:28;;;;;;;;;4.25;4.00;;;;;16.49;68.42;101538.41;4944643;28;45631;-63
2021/08/26 05:58:54;;;;;;;;;4.00;3.25;;;;;16.52;68.15;101538.06;4949468;28;45387;-67
2021/08/26 06:01:19;;;;;;;;;5.00;3.00;;;;;16.57;68.18;101540.22;4944373;28;45643;-64
2021/08/26 06:03:45;;;;;;;;;4.00;2.00;;;;;16.62;67.92;101540.56;4943229;28;46316;-65
2021/08/26 06:06:10;;;;;;;;;6.00;4.00;;;;;16.66;67.97;101539.19;4939198;28;45555;-69
2021/08/26 06:08:35;;;;;;;;;2.25;2.25;;;;;16.71;67.99;101538.69;4956905;28;46035;-71
2021/08/26 06:11:01;;;;;;;;;3.25;2.50;;;;;16.74;67.91;101535.66;4951856;28;46466;-67
2021/08/26 06:13:26;;;;;;;;;2.00;2.00;;;;;16.77;68.08;101538.00;4948859;28;45502;-66
2021/08/26 06:15:52;;;;;;;;;2.50;2.00;;;;;16.81;67.98;101541.19;4950335;28;45456;-70
2021/08/26 06:18:18;;;;;;;;;4.00;2.00;;;;;16.83;68.10;101540.03;4953074;28;46177;-70
2021/08/26 06:20:44;;;;;;;;;3.00;2.25;;;;;16.85;67.76;101540.69;4952667;28;45586;-71
2021/08/26 06:23:10;;;;;;;;;1.75;1.75;;;;;16.91;67.46;101548.03;4944994;28;46369;-64
2021/08/26 06:25:35;;;;;;;;;2.75;2.75;;;;;16.96;67.74;101542.16;4951635;28;45388;-69
2021/08/26 06:28:00;;;;;;;;;3.00;3.00;;;;;17.01;67.78;101546.97;4949201;28;45825;-69
2021/08/26 06:30:26;;;;;;;;;3.00;2.75;;;;;17.07;67.54;101540.97;4962925;28;45536;-73
2021/08/26 06:32:52;;;;;;;;;3.25;3.25;;;;;17.15;67.50;101544.41;4938397;28;46216;-68
2021/08/26 06:35:18;;;;;;;;;4.50;3.50;;;;;17.24;67.50;101550.56;4944199;28;45985;-67
2021/08/26 06:37:43;;;;;;;;;3.75;2.00;;;;;17.34;66.74;101547.69;4943770;28;45580;-71
2021/08/26 06:40:09;;;;;;;;;4.00;2.50;;;;;17.48;66.72;101546.09;4945024;28;45499;-68
2021/08/26 06:42:35;;;;;;;;;3.50;3.00;;;;;17.64;66.86;101548.72;4941089;28;45515;-71
2021/08/26 06:45:00;;;;;;;;;3.00;2.75;;;;;17.74;66.17;101543.13;4949329;28;49770;-70
2021/08/26 06:47:26;;;;;;;;;3.00;1.75;;;;;17.81;66.26;101547.63;4948447;28;46127;-69
2021/08/26 06:49:51;;;;;;;;;2.00;2.00;;;;;17.86;65.65;101541.75;4941108;28;45479;-67
2021/08/26 06:52:16;;;;;;;;;2.25;2.25;;;;;17.95;65.81;101537.16;4944634;28;45622;-65
2021/08/26 06:54:42;;;;;;;;;3.25;2.00;;;;;18.04;65.52;101542.28;4950503;28;45415;-66
2021/08/26 06:57:07;;;;;;;;;3.00;3.00;;;;;18.17;65.64;101544.34;4935900;28;45584;-68
2021/08/26 06:59:33;;;;;;;;;3.25;2.75;;;;;18.26;65.22;101537.91;4952366;28;45483;-66
2021/08/26 07:01:58;;;;;;;;;3.50;1.25;;;;;18.34;64.80;101533.50;4947075;28;46123;-72
2021/08/26 07:04:24;;;;;;;;;3.00;1.75;;;;;18.38;65.28;101532.97;4949963;28;45814;-69
2021/08/26 07:06:54;;;;;;;;;3.00;1.00;;;;;18.39;65.17;101539.16;4950326;28;45613;-69
2021/08/26 07:09:21;;;;;;;;;4.50;2.00;;;;;18.45;65.11;101541.13;4940679;28;45413;-67
2021/08/26 07:11:46;;;;;;;;;3.50;1.75;;;;;18.51;65.14;101539.53;4953037;28;47144;-69
2021/08/26 07:14:12;;;;;;;;;5.00;4.00;;;;;18.58;65.08;101535.97;4948628;28;45425;-68
2021/08/26 07:16:37;;;;;;;;;5.50;2.00;;;;;18.63;64.79;101541.59;4949362;28;45449;-64
2021/08/26 07:19:02;;;;;;;;;3.75;2.25;;;;;18.66;64.16;101540.38;4922469;28;45691;-64
2021/08/26 07:21:28;;;;;;;;;1.50;1.50;;;;;18.70;64.32;101544.38;4934476;28;46114;-67
2021/08/26 07:23:53;;;;;;;;;3.00;3.00;;;;;18.69;64.25;101538.19;4939842;28;45426;-64
2021/08/26 07:26:19;;;;;;;;;2.25;2.00;;;;;18.73;64.46;101538.66;4938848;28;45650;-64
2021/08/26 07:28:45;;;;;;;;;2.25;2.25;;;;;18.78;64.47;101530.09;4922632;28;45524;-64
2021/08/26 07:31:10;;;;;;;;;3.00;2.00;;;;;18.87;64.75;101539.72;4940613;28;46190;-64
2021/08/26 07:33:36;;;;;;;;;3.00;3.00;;;;;19.11;64.26;101525.19;4937578;28;45868;-66
2021/08/26 07:36:03;;;;;;;;;3.75;2.00;;;;;19.34;63.73;101527.75;4932212;28;45574;-66
2021/08/26 07:38:28;;;;;;;;;3.75;2.75;;;;;19.44;63.87;101517.56;4938082;28;45550;-68
2021/08/26 07:40:54;;;;;;;;;4.00;3.00;;;;;19.55;63.43;101533.13;4936230;28;45587;-68
2021/08/26 07:43:19;;;;;;;;;3.50;2.75;;;;;19.67;63.05;101519.25;4934811;28;45783;-64
2021/08/26 07:45:45;;;;;;;;;2.50;2.00;;;;;19.79;62.29;101525.78;4942613;28;45644;-65
2021/08/26 07:48:10;;;;;;;;;2.00;1.75;;;;;19.84;62.09;101528.72;4938129;28;45656;-67
2021/08/26 07:50:35;;;;;;;;;2.50;2.00;;;;;19.90;62.15;101530.63;4943445;28;46071;-67
2021/08/26 07:53:01;;;;;;;;;1.75;1.75;;;;;19.92;61.82;101528.59;4935916;28;46186;-68
2021/08/26 07:55:26;;;;;;;;;4.00;1.25;;;;;19.94;61.88;101531.94;4948726;28;45553;-66
2021/08/26 09:33:06;;;;;;;;;228.50;207.75;;;;;20.88;60.24;101535.34;4990260;27;45565;-74
2021/08/26 09:35:33;;;;;;;;;3.50;3.00;;;;;20.89;60.53;101524.38;4976570;27;45473;-68
2021/08/26 09:38:04;;;;;;;;;3.00;3.00;;;;;21.01;60.48;101530.03;4982168;27;45434;-69
2021/08/26 09:40:42;;;;;;;;;5.50;4.00;;;;;21.24;59.58;101521.66;4971536;27;45572;-66
2021/08/26 09:43:08;;;;;;;;;4.00;4.00;;;;;21.52;59.41;101521.59;4978604;27;47046;-72
2021/08/26 09:45:36;;;;;;;;;4.75;4.00;;;;;21.88;59.57;101523.94;4970699;27;45683;-65
2021/08/26 09:48:08;;;;;;;;;2.75;2.75;;;;;22.22;58.42;101521.28;4973421;27;45480;-69
2021/08/26 09:50:44;;;;;;;;;3.00;2.25;;;;;22.35;58.20;101525.84;4978524;27;45541;-69
2021/08/26 09:53:15;;;;;;;;;4.25;3.00;;;;;22.48;57.26;101523.97;4980257;27;47269;-65
2021/08/26 09:56:05;;;;;;;;;5.75;4.50;;;;;22.66;57.25;101519.81;4971487;27;49046;-63
2021/08/26 09:58:35;;;;;;;;;3.75;2.00;;;;;22.78;56.82;101512.72;4975555;27;45495;-71
2021/08/26 10:01:09;;;;;;;;;1.25;1.25;;;;;22.80;56.76;101518.75;4975479;27;45545;-72
2021/08/26 10:03:35;;;;;;;;;2.75;1.75;;;;;22.76;56.75;101522.88;4975073;27;45657;-67
2021/08/26 10:06:01;;;;;;;;;2.25;2.00;;;;;22.68;56.85;101512.34;4972771;27;46167;-66
2021/08/26 10:08:30;;;;;;;;;2.00;2.00;;;;;22.76;57.33;101517.50;4976992;27;45546;-67
2021/08/26 10:10:57;;;;;;;;;2.00;2.00;;;;;23.01;56.75;101514.13;4971645;27;45587;-71
2021/08/26 10:13:23;;;;;;;;;3.00;2.00;;;;;23.18;56.39;101516.13;4976536;27;45695;-66
2021/08/26 10:15:49;;;;;;;;;2.00;2.00;;;;;23.35;56.19;101510.25;4972870;27;45516;-71
2021/08/26 10:18:18;;;;;;;;;5.00;3.00;;;;;23.70;56.03;101507.97;4978226;27;45553;-72
2021/08/26 10:20:44;;;;;;;;;4.50;4.50;;;;;24.24;55.16;101500.31;4984661;27;45410;-72
2021/08/26 10:23:11;;;;;;;;;2.75;2.75;;;;;24.55;54.43;101496.69;4973746;27;47116;-66
2021/08/26 10:25:42;;;;;;;;;5.50;5.50;;;;;24.67;53.91;101494.91;4981237;27;45494;-63
2021/08/26 10:28:09;;;;;;;;;3.50;1.75;;;;;24.81;53.02;101494.78;4972911;27;45973;-64
2021/08/26 10:30:41;;;;;;;;;1.75;1.75;;;;;25.09;53.36;101494.22;4969828;27;45630;-69
2021/08/26 10:33:12;;;;;;;;;2.00;1.00;;;;;25.49;52.19;101491.84;4976906;27;45512;-72
2021/08/26 10:36:09;;;;;;;;;3.00;1.00;;;;;25.74;51.49;101493.53;4979604;27;45530;-66
2021/08/26 10:38:36;;;;;;;;;1.75;1.00;;;;;25.52;51.04;101499.50;4975495;27;45573;-68
2021/08/26 10:41:19;;;;;;;;;2.50;1.25;;;;;25.19;51.02;101496.41;4979678;27;45458;-72
2021/08/26 10:44:00;;;;;;;;;1.00;1.00;;;;;24.98;51.76;101503.09;4965260;28;46180;-65
2021/08/26 10:46:49;;;;;;;;;3.00;2.00;;;;;24.96;51.75;101497.91;4957148;28;45571;-65
2021/08/26 10:49:15;;;;;;;;;3.00;1.50;;;;;24.80;51.36;101499.38;4955721;28;45456;-72
2021/08/26 10:51:43;;;;;;;;;3.00;3.00;;;;;24.59;51.51;101506.03;4963977;28;45550;-70
2021/08/26 10:54:31;;;;;;;;;4.75;3.25;;;;;24.38;52.25;101504.56;4962522;28;46377;-69
2021/08/26 10:57:18;;;;;;;;;3.25;3.00;;;;;24.17;52.40;101499.53;4961059;28;45734;-66
2021/08/26 10:59:43;;;;;;;;;1.00;1.00;;;;;23.92;53.11;101504.94;4962333;28;45629;-72
2021/08/26 11:02:41;;;;;;;;;3.00;1.75;;;;;23.63;54.31;101504.47;4958876;28;45549;-67
2021/08/26 11:05:31;;;;;;;;;0.75;0.75;;;;;23.45;54.47;101513.31;4961350;28;45589;-71
2021/08/26 11:07:56;;;;;;;;;2.00;2.00;;;;;23.53;54.83;101510.34;4959314;28;45582;-71
2021/08/26 11:10:26;;;;;;;;;1.00;1.00;;;;;23.91;54.26;101517.63;4961617;28;45469;-73
2021/08/26 11:12:51;;;;;;;;;0.00;0.00;;;;;24.43;53.00;101520.06;4966196;28;45633;-72
2021/08/26 11:15:25;;;;;;;;;1.25;1.00;;;;;24.75;52.32;101517.28;4954443;28;46138;-73
2021/08/26 11:17:51;;;;;;;;;0.75;0.75;;;;;24.81;51.78;101519.09;4979416;28;45582;-67
2021/08/26 11:20:42;;;;;;;;;2.00;2.00;;;;;24.63;51.67;101515.34;4959226;28;45773;-65
2021/08/26 11:23:09;;;;;;;;;4.00;2.00;;;;;24.48;51.61;101522.97;4965288;28;45463;-73
2021/08/26 11:25:35;;;;;;;;;2.00;2.00;;;;;24.37;51.25;101520.97;4956220;28;45573;-73
2021/08/26 11:28:30;;;;;;;;;2.50;2.50;;;;;24.26;51.63;101514.44;4958009;28;46050;-66
2021/08/26 11:31:14;;;;;;;;;1.50;1.50;;;;;24.21;51.99;101519.66;4956437;28;45558;-66
2021/08/26 11:33:40;;;;;;;;;3.00;2.00;;;;;24.10;52.29;101523.91;4958767;28;45730;-65
2021/08/26 11:36:13;;;;;;;;;3.00;3.00;;;;;23.86;52.19;101525.53;4949482;28;47236;-74
2021/08/26 11:38:48;;;;;;;;;4.75;3.75;;;;;23.61;53.60;101514.66;4958973;28;45788;-64
2021/08/26 11:41:14;;;;;;;;;2.00;2.00;;;;;23.59;54.76;101524.88;4957665;28;45587;-65
2021/08/26 11:43:43;;;;;;;;;5.00;3.00;;;;;24.19;53.89;101519.88;4957669;28;45578;-71
2021/08/26 11:46:14;;;;;;;;;6.50;3.00;;;;;25.18;52.74;101511.81;4957622;28;46100;-72
2021/08/26 11:48:50;;;;;;;;;3.75;3.75;;;;;26.17;50.97;101509.53;4951180;28;45511;-66
2021/08/26 11:51:24;;;;;;;;;2.00;2.00;;;;;26.68;49.50;101504.50;4963734;28;45578;-64
2021/08/26 11:53:49;;;;;;;;;4.00;2.00;;;;;27.21;47.99;101508.84;4962602;28;46166;-76
2021/08/26 11:56:15;;;;;;;;;3.00;2.50;;;;;27.27;46.12;101511.66;4952890;28;45484;-65
2021/08/26 11:58:40;;;;;;;;;3.50;3.50;;;;;26.94;47.53;101502.31;4957323;28;45519;-65
2021/08/26 12:01:06;;;;;;;;;3.00;3.00;;;;;26.69;47.93;101494.47;4957728;28;45567;-72
2021/08/26 12:03:32;;;;;;;;;6.25;5.00;;;;;26.52;47.31;101491.63;4953587;28;45547;-65
2021/08/26 12:05:57;;;;;;;;;4.00;3.00;;;;;26.19;47.61;101495.75;4959613;28;45980;-72
2021/08/26 12:08:22;;;;;;;;;4.00;4.00;;;;;25.82;48.67;101485.09;4959226;28;45535;-71
2021/08/26 12:10:48;;;;;;;;;4.25;4.25;;;;;25.64;48.76;101488.72;4960689;28;45734;-71
2021/08/26 12:13:15;;;;;;;;;4.00;3.00;;;;;25.55;48.61;101490.09;4958637;28;45506;-72
2021/08/26 12:15:49;;;;;;;;;3.50;3.00;;;;;25.49;48.63;101482.88;4959516;28;45612;-71
2021/08/26 12:18:16;;;;;;;;;5.00;4.00;;;;;25.39;48.32;101483.44;4994829;28;45925;-71
2021/08/26 12:20:50;;;;;;;;;5.75;2.25;;;;;25.33;48.57;101489.78;4962911;28;45915;-71
2021/08/26 12:23:18;;;;;;;;;3.50;2.00;;;;;25.29;48.37;101488.56;4960341;28;45449;-70
2021/08/26 12:26:02;;;;;;;;;2.00;2.00;;;;;25.23;47.78;101486.81;4960863;28;46167;-64
2021/08/26 12:28:31;;;;;;;;;3.25;1.50;;;;;25.16;49.14;101486.03;4957412;28;45615;-66
2021/08/26 12:30:57;;;;;;;;;5.25;4.25;;;;;25.13;48.11;101497.31;4955894;28;45592;-70
2021/08/26 12:33:22;;;;;;;;;4.50;4.25;;;;;24.94;47.83;101501.91;4956406;28;46086;-70
2021/08/26 12:35:58;;;;;;;;;6.00;3.00;;;;;24.70;48.22;101503.63;4962226;28;46108;-64
2021/08/26 12:38:41;;;;;;;;;4.00;4.00;;;;;24.52;48.46;101505.25;4960107;28;45495;-66
2021/08/26 12:41:17;;;;;;;;;8.00;4.00;;;;;24.60;48.47;101496.84;4960919;28;45869;-77
2021/08/26 12:43:54;;;;;;;;;5.00;4.00;;;;;25.02;47.95;101502.41;4958159;28;45472;-64
2021/08/26 12:46:32;;;;;;;;;3.00;3.00;;;;;25.55;47.31;101500.09;4964808;28;47884;-65
2021/08/26 12:49:06;;;;;;;;;4.00;4.00;;;;;26.47;45.80;101502.34;4960299;28;46002;-73
2021/08/26 12:51:31;;;;;;;;;5.00;5.00;;;;;27.06;44.30;101502.28;4957399;28;45573;-64
2021/08/26 12:54:03;;;;;;;;;3.00;3.00;;;;;27.45;44.34;101493.28;4981507;27;45461;-64
2021/08/26 12:56:58;;;;;;;;;4.75;4.00;;;;;27.58;43.40;101499.47;4982789;28;45574;-64
2021/08/26 12:59:42;;;;;;;;;4.75;4.75;;;;;27.27;42.51;101503.50;4959032;28;45566;-64
2021/08/26 13:02:09;;;;;;;;;4.50;4.50;;;;;27.02;43.37;101504.63;4956411;28;45779;-65
2021/08/26 13:04:35;;;;;;;;;5.00;3.50;;;;;26.94;42.99;101500.41;4959093;28;45520;-71